Time;durP1;ratioP1;P1;durP2;ratioP2;P2;SDS_P1;SDS_P2;PMS_P1;PMS_P2;Temp;Humidity;BMP_temperature;BMP_pressure;BME280_temperature;BME280_humidity;BME280_pressure;Samples;Min_cycle;Max_cycle;Signal;HPM_P1;HPM_P2
2021/04/25 00:02:10;;;;;;;6.32;3.00;;;12.00;53.90;;;;;;5095488;28;20060;-79
2021/04/25 00:04:39;;;;;;;6.35;3.40;;;12.00;54.20;;;;;;5095417;28;20057;-78
2021/04/25 00:07:06;;;;;;;6.43;3.10;;;11.90;54.40;;;;;;5095206;28;20080;-79
2021/04/25 00:09:33;;;;;;;6.43;3.42;;;12.00;54.70;;;;;;5094060;28;20126;-80
2021/04/25 00:12:00;;;;;;;6.63;3.35;;;11.90;54.50;;;;;;5095149;28;20127;-78
2021/04/25 00:14:27;;;;;;;6.45;3.50;;;11.90;54.70;;;;;;5094700;28;20048;-79
2021/04/25 00:16:57;;;;;;;7.70;3.47;;;11.90;54.40;;;;;;5094912;28;20052;-78
2021/04/25 00:19:25;;;;;;;6.85;3.47;;;11.90;54.70;;;;;;5094790;28;20506;-79
2021/04/25 00:21:51;;;;;;;6.53;3.33;;;11.80;54.80;;;;;;5094952;28;20130;-78
2021/04/25 00:24:18;;;;;;;8.27;3.67;;;11.80;55.80;;;;;;5094974;28;20075;-80
2021/04/25 00:26:45;;;;;;;6.03;3.28;;;11.70;55.00;;;;;;5094539;28;20486;-79
2021/04/25 00:29:12;;;;;;;5.95;3.40;;;11.70;55.30;;;;;;5094394;28;20067;-79
2021/04/25 00:31:39;;;;;;;6.18;3.08;;;11.60;55.20;;;;;;5094728;28;20131;-80
2021/04/25 00:34:06;;;;;;;7.45;3.78;;;11.60;55.70;;;;;;5094352;28;20051;-79
2021/04/25 00:36:34;;;;;;;7.63;3.50;;;11.50;56.10;;;;;;5094596;28;20082;-79
2021/04/25 00:39:00;;;;;;;9.10;3.80;;;11.50;56.50;;;;;;5094305;28;20072;-79
2021/04/25 00:41:27;;;;;;;6.97;3.67;;;11.40;56.70;;;;;;5094565;28;20084;-79
2021/04/25 00:43:55;;;;;;;10.05;4.53;;;11.40;56.50;;;;;;5094471;28;20087;-80
2021/04/25 00:46:21;;;;;;;7.30;3.78;;;11.30;56.70;;;;;;5094332;28;20084;-80
2021/04/25 00:48:49;;;;;;;6.45;3.50;;;11.20;56.80;;;;;;5094272;28;20127;-79
2021/04/25 00:51:16;;;;;;;6.63;3.20;;;11.10;57.80;;;;;;5094319;28;20489;-79
2021/04/25 00:53:44;;;;;;;7.03;3.80;;;11.00;58.40;;;;;;5094329;28;20044;-78
2021/04/25 00:56:11;;;;;;;6.85;3.70;;;11.00;58.80;;;;;;5094158;28;20087;-80
2021/04/25 00:58:38;;;;;;;7.43;3.60;;;11.10;58.90;;;;;;5092570;28;20565;-79
2021/04/25 01:01:04;;;;;;;9.00;3.70;;;11.10;59.00;;;;;;5094189;28;20048;-79
2021/04/25 01:03:31;;;;;;;7.85;3.40;;;11.10;58.90;;;;;;5094016;28;20516;-79
2021/04/25 01:05:57;;;;;;;6.32;3.40;;;11.00;58.60;;;;;;5094179;28;20139;-80
2021/04/25 01:08:24;;;;;;;7.13;4.18;;;11.00;59.00;;;;;;5093476;28;20520;-80
2021/04/25 01:10:52;;;;;;;6.78;3.72;;;11.00;59.00;;;;;;5094045;28;20048;-80
2021/04/25 01:13:19;;;;;;;7.22;3.63;;;10.90;58.90;;;;;;5093953;28;20098;-80
2021/04/25 01:15:46;;;;;;;8.20;3.40;;;10.90;59.40;;;;;;5093964;28;20083;-79
2021/04/25 01:18:13;;;;;;;7.18;3.70;;;10.80;60.00;;;;;;5093703;28;20047;-78
2021/04/25 01:20:40;;;;;;;7.57;3.55;;;10.70;60.10;;;;;;5093956;28;20075;-79
2021/04/25 01:23:07;;;;;;;6.00;3.80;;;10.70;60.30;;;;;;5093817;28;20445;-80
2021/04/25 01:25:34;;;;;;;7.47;3.58;;;10.70;60.60;;;;;;5094046;28;20387;-79
2021/04/25 01:28:01;;;;;;;6.70;3.50;;;10.60;60.60;;;;;;5093464;28;20079;-79
2021/04/25 01:30:31;;;;;;;7.82;3.80;;;10.50;61.00;;;;;;5092674;28;20075;-78
2021/04/25 01:32:58;;;;;;;8.18;4.18;;;10.60;60.90;;;;;;5093132;28;20565;-80
2021/04/25 01:35:26;;;;;;;6.70;3.30;;;10.60;60.90;;;;;;5093645;28;20087;-79
2021/04/25 01:37:56;;;;;;;7.97;3.80;;;10.60;61.40;;;;;;5092039;28;20086;-78
2021/04/25 01:40:26;;;;;;;10.27;3.72;;;10.50;61.40;;;;;;5093304;28;20047;-79
2021/04/25 01:42:53;;;;;;;6.88;3.65;;;10.50;61.40;;;;;;5093896;28;20097;-79
2021/04/25 01:45:20;;;;;;;5.72;3.33;;;10.60;61.20;;;;;;5093410;28;20083;-79
2021/04/25 01:47:49;;;;;;;9.73;4.00;;;10.50;62.40;;;;;;5093248;28;20044;-80
2021/04/25 01:50:18;;;;;;;7.80;3.65;;;10.50;61.80;;;;;;5093083;28;20501;-79
2021/04/25 01:52:45;;;;;;;7.05;3.60;;;10.40;62.00;;;;;;5093285;28;20521;-80
2021/04/25 01:55:13;;;;;;;8.10;3.83;;;10.50;62.10;;;;;;5093032;28;20083;-79
2021/04/25 01:57:42;;;;;;;8.77;3.70;;;10.40;62.50;;;;;;5092867;28;20091;-80
2021/04/25 02:00:13;;;;;;;7.80;3.85;;;10.50;63.40;;;;;;5093200;28;20083;-79
2021/04/25 02:02:40;;;;;;;7.60;4.18;;;10.40;62.60;;;;;;5092802;28;20076;-80
2021/04/25 02:05:09;;;;;;;6.30;3.58;;;10.50;62.60;;;;;;5093084;28;20093;-79
2021/04/25 02:07:36;;;;;;;10.25;4.13;;;10.40;62.50;;;;;;5072878;28;20080;-79
2021/04/25 02:10:05;;;;;;;7.53;3.60;;;10.30;62.80;;;;;;5091906;28;20083;-78
2021/04/25 02:12:32;;;;;;;8.50;3.55;;;10.30;63.70;;;;;;5093153;28;20044;-78
2021/04/25 02:15:00;;;;;;;8.00;3.78;;;10.30;63.50;;;;;;5093166;28;20537;-79
2021/04/25 02:17:26;;;;;;;7.60;3.70;;;10.30;64.00;;;;;;5092947;28;20501;-78
2021/04/25 02:19:53;;;;;;;6.95;3.72;;;10.30;64.10;;;;;;5092604;28;20136;-79
2021/04/25 02:22:20;;;;;;;9.65;4.22;;;10.10;63.60;;;;;;5092943;28;20452;-79
2021/04/25 02:24:46;;;;;;;9.55;4.03;;;10.10;62.90;;;;;;5093007;28;20079;-79
2021/04/25 02:27:13;;;;;;;6.95;3.72;;;10.10;63.20;;;;;;5092970;28;20105;-80
2021/04/25 02:29:39;;;;;;;6.00;3.53;;;10.00;63.50;;;;;;5092383;28;20083;-79
2021/04/25 02:32:07;;;;;;;8.20;3.90;;;10.10;64.30;;;;;;5094834;28;20056;-79
2021/04/25 02:34:34;;;;;;;6.90;3.55;;;10.00;64.40;;;;;;5096988;28;20083;-79
2021/04/25 02:37:00;;;;;;;7.70;4.18;;;9.90;64.80;;;;;;5096522;28;20110;-79
2021/04/25 02:39:27;;;;;;;9.13;4.20;;;9.90;64.70;;;;;;5096755;28;20490;-79
2021/04/25 02:41:53;;;;;;;7.22;3.80;;;9.80;65.40;;;;;;5096814;28;20294;-80
2021/04/25 02:44:21;;;;;;;8.88;4.00;;;9.80;65.70;;;;;;5096997;28;20054;-79
2021/04/25 02:46:47;;;;;;;7.45;4.20;;;9.80;66.00;;;;;;5096741;28;20083;-80
2021/04/25 02:49:15;;;;;;;7.05;3.40;;;9.80;66.20;;;;;;5096664;28;20056;-79
2021/04/25 02:51:43;;;;;;;6.82;3.70;;;9.70;66.40;;;;;;5095810;28;20491;-79
2021/04/25 02:54:10;;;;;;;6.53;3.72;;;9.60;66.80;;;;;;5096904;28;20048;-79
2021/04/25 02:56:37;;;;;;;7.70;3.80;;;9.70;66.90;;;;;;5096385;28;20549;-79
2021/04/25 02:59:04;;;;;;;7.95;3.47;;;9.60;67.30;;;;;;5096398;28;20101;-78
2021/04/25 03:01:30;;;;;;;7.88;4.20;;;9.60;67.70;;;;;;5096339;28;20161;-78
2021/04/25 03:03:57;;;;;;;8.95;3.67;;;9.60;68.10;;;;;;5094529;28;20124;-79
2021/04/25 03:06:24;;;;;;;8.68;3.90;;;9.50;68.10;;;;;;5094820;28;20186;-79
2021/04/25 03:08:51;;;;;;;7.80;4.13;;;9.50;68.60;;;;;;5093240;28;20072;-79
2021/04/25 03:11:18;;;;;;;9.73;4.15;;;9.50;68.60;;;;;;5094167;28;20126;-79
2021/04/25 03:13:45;;;;;;;6.88;4.10;;;9.60;68.70;;;;;;5094025;28;20152;-79
2021/04/25 03:16:11;;;;;;;8.52;4.10;;;9.40;67.90;;;;;;5093656;28;20080;-79
2021/04/25 03:18:38;;;;;;;7.57;4.00;;;9.50;68.20;;;;;;5093624;28;20109;-79
2021/04/25 03:21:05;;;;;;;8.20;4.30;;;9.40;68.90;;;;;;5093497;28;20075;-79
2021/04/25 03:23:33;;;;;;;9.00;4.18;;;9.30;68.70;;;;;;5093380;28;20833;-78
2021/04/25 03:25:59;;;;;;;11.07;3.92;;;9.40;69.60;;;;;;5093631;28;20118;-79
2021/04/25 03:28:26;;;;;;;7.28;3.65;;;9.20;70.50;;;;;;5093335;28;20067;-79
2021/04/25 03:30:54;;;;;;;9.15;4.13;;;9.10;71.10;;;;;;5093679;28;20080;-79
2021/04/25 03:33:21;;;;;;;7.63;4.05;;;9.10;71.40;;;;;;5093549;28;20113;-78
2021/04/25 03:35:48;;;;;;;8.95;4.07;;;9.20;71.90;;;;;;5093651;28;20463;-80
2021/04/25 03:38:15;;;;;;;7.55;3.92;;;9.20;72.10;;;;;;5091940;28;20054;-80
2021/04/25 03:40:43;;;;;;;7.82;3.83;;;9.30;72.50;;;;;;5093526;28;20084;-80
2021/04/25 03:43:10;;;;;;;8.55;3.95;;;9.20;72.10;;;;;;5091896;28;20085;-79
2021/04/25 03:45:37;;;;;;;8.45;4.40;;;9.10;71.90;;;;;;5093208;28;20127;-79
2021/04/25 03:48:04;;;;;;;10.27;4.28;;;9.20;70.90;;;;;;5092894;28;20476;-80
2021/04/25 03:50:31;;;;;;;8.15;4.18;;;9.00;71.20;;;;;;5092092;28;20458;-78
2021/04/25 03:52:58;;;;;;;7.75;4.05;;;8.90;72.00;;;;;;5093235;28;20139;-79
2021/04/25 03:55:24;;;;;;;8.25;3.95;;;8.80;72.00;;;;;;5093216;28;20084;-79
2021/04/25 03:57:52;;;;;;;9.27;4.38;;;8.80;73.30;;;;;;5092426;28;20059;-79
2021/04/25 04:00:20;;;;;;;7.38;3.95;;;8.70;74.80;;;;;;5072571;28;20398;-79
2021/04/25 04:02:47;;;;;;;10.30;4.18;;;8.60;75.60;;;;;;5089728;28;20140;-78
2021/04/25 04:05:15;;;;;;;7.80;4.00;;;8.60;76.70;;;;;;5095403;28;20045;-79
2021/04/25 04:07:41;;;;;;;8.07;4.45;;;8.60;77.10;;;;;;5095345;28;20079;-78
2021/04/25 04:10:10;;;;;;;7.43;3.83;;;8.70;77.70;;;;;;5095750;28;20139;-80
2021/04/25 04:12:37;;;;;;;8.10;3.80;;;8.60;77.30;;;;;;5095500;28;20109;-79
2021/04/25 04:15:07;;;;;;;8.05;4.53;;;8.60;77.60;;;;;;5095769;28;20132;-80
2021/04/25 04:17:34;;;;;;;9.18;4.10;;;8.70;77.40;;;;;;5095333;28;20143;-80
2021/04/25 04:20:00;;;;;;;9.38;4.43;;;8.70;77.50;;;;;;5095285;28;20052;-80
2021/04/25 04:22:27;;;;;;;7.95;4.03;;;8.70;76.40;;;;;;5094422;28;20452;-82
2021/04/25 04:24:54;;;;;;;8.98;4.82;;;8.70;76.30;;;;;;5094962;28;20044;-82
2021/04/25 04:27:21;;;;;;;7.57;4.05;;;8.60;76.30;;;;;;5093992;28;20405;-80
2021/04/25 04:29:48;;;;;;;8.77;4.25;;;8.60;76.60;;;;;;5094530;28;20067;-80
2021/04/25 04:32:16;;;;;;;8.25;4.35;;;8.50;77.20;;;;;;5094511;28;20139;-79
2021/04/25 04:34:42;;;;;;;6.97;4.10;;;8.30;77.90;;;;;;5094833;28;20083;-80
2021/04/25 04:37:09;;;;;;;7.97;4.38;;;8.50;78.20;;;;;;5093480;28;20500;-79
2021/04/25 04:39:36;;;;;;;8.77;4.13;;;8.50;78.60;;;;;;5094348;28;20493;-80
2021/04/25 04:42:04;;;;;;;7.63;4.13;;;8.50;77.80;;;;;;5094957;28;20067;-80
2021/04/25 04:44:30;;;;;;;10.13;4.40;;;8.50;78.40;;;;;;5094697;28;20052;-80
2021/04/25 04:46:57;;;;;;;8.63;4.40;;;8.40;77.90;;;;;;5094567;28;20086;-80
2021/04/25 04:49:25;;;;;;;8.00;4.28;;;8.50;78.70;;;;;;5094404;28;20055;-80
2021/04/25 04:51:51;;;;;;;9.45;4.20;;;8.50;79.80;;;;;;5094664;28;20087;-82
2021/04/25 04:54:18;;;;;;;7.75;4.13;;;8.40;80.00;;;;;;5093685;28;20051;-83
2021/04/25 04:56:45;;;;;;;7.75;4.20;;;8.50;81.00;;;;;;5094680;28;20083;-81
2021/04/25 04:59:11;;;;;;;8.45;4.38;;;8.50;80.80;;;;;;5094739;28;20044;-82
2021/04/25 05:01:38;;;;;;;7.65;3.97;;;8.50;81.00;;;;;;5091474;28;20053;-80
2021/04/25 05:04:05;;;;;;;8.23;3.97;;;8.50;81.00;;;;;;5074432;28;20097;-79
2021/04/25 05:06:33;;;;;;;8.13;4.43;;;8.60;81.60;;;;;;5073697;28;20052;-79
2021/04/25 05:09:00;;;;;;;6.97;3.92;;;8.70;81.00;;;;;;5078573;28;20494;-79
2021/04/25 05:11:26;;;;;;;9.50;4.20;;;8.70;81.20;;;;;;5094086;28;20059;-79
2021/04/25 05:13:53;;;;;;;8.05;4.50;;;8.60;81.10;;;;;;5081319;28;20064;-80
2021/04/25 05:16:20;;;;;;;9.00;4.22;;;8.60;81.00;;;;;;5078298;28;20076;-79
2021/04/25 05:18:46;;;;;;;9.20;4.25;;;8.70;81.30;;;;;;5082252;28;20091;-79
2021/04/25 05:21:13;;;;;;;8.35;4.07;;;8.70;81.90;;;;;;5091834;28;20040;-79
2021/04/25 05:23:41;;;;;;;7.32;4.20;;;8.80;81.90;;;;;;5094086;28;20051;-79
2021/04/25 05:26:08;;;;;;;9.35;4.30;;;8.80;81.80;;;;;;5079190;28;20080;-79
2021/04/25 05:28:35;;;;;;;8.25;4.60;;;8.80;80.90;;;;;;5073887;28;20159;-79
2021/04/25 05:31:01;;;;;;;7.35;4.45;;;8.80;80.50;;;;;;5080433;28;20080;-80
2021/04/25 05:33:30;;;;;;;8.88;3.83;;;8.70;80.70;;;;;;5080237;28;20106;-79
2021/04/25 05:35:56;;;;;;;8.35;4.20;;;8.80;82.60;;;;;;5093519;28;20087;-78
2021/04/25 05:38:24;;;;;;;6.60;4.03;;;8.70;82.80;;;;;;5083814;28;20048;-80
2021/04/25 05:40:51;;;;;;;8.68;4.10;;;8.70;83.70;;;;;;5073239;28;20131;-79
2021/04/25 05:43:18;;;;;;;8.68;4.25;;;8.80;83.50;;;;;;5074070;28;20540;-82
2021/04/25 05:45:45;;;;;;;8.88;4.70;;;8.90;83.50;;;;;;5074167;28;20106;-82
2021/04/25 05:48:11;;;;;;;7.63;4.70;;;8.90;83.30;;;;;;5080754;28;20072;-81
2021/04/25 05:50:39;;;;;;;8.38;4.47;;;9.00;83.20;;;;;;5073454;28;20053;-80
2021/04/25 05:53:05;;;;;;;10.38;4.90;;;9.10;83.30;;;;;;5086103;28;20062;-80
2021/04/25 05:55:32;;;;;;;7.85;4.70;;;9.30;82.50;;;;;;5076085;28;20059;-82
2021/04/25 05:58:00;;;;;;;7.75;4.70;;;9.30;82.80;;;;;;5083953;28;20068;-83
2021/04/25 06:00:30;;;;;;;8.55;4.45;;;9.30;83.00;;;;;;5076800;28;20052;-82
2021/04/25 06:02:57;;;;;;;8.68;4.32;;;9.30;81.30;;;;;;5074147;28;20350;-83
2021/04/25 06:05:24;;;;;;;11.57;5.15;;;9.10;81.70;;;;;;5076770;28;20147;-83
2021/04/25 06:07:51;;;;;;;9.23;4.80;;;9.20;80.90;;;;;;5086485;28;20071;-79
2021/04/25 06:10:20;;;;;;;8.50;5.45;;;9.30;81.30;;;;;;5088330;28;20047;-78
2021/04/25 06:12:49;;;;;;;8.85;4.82;;;9.30;81.10;;;;;;5082283;28;20044;-82
2021/04/25 06:15:20;;;;;;;10.57;4.80;;;9.30;82.00;;;;;;5085515;28;20576;-81
2021/04/25 06:17:51;;;;;;;9.77;5.28;;;9.20;82.80;;;;;;5093951;28;20071;-80
2021/04/25 06:20:21;;;;;;;9.55;5.22;;;9.30;83.00;;;;;;5094967;28;20113;-81
2021/04/25 06:22:48;;;;;;;9.40;4.90;;;9.30;83.30;;;;;;5093213;28;20048;-81
2021/04/25 06:25:18;;;;;;;9.73;5.13;;;9.40;83.10;;;;;;5079334;28;20143;-79
2021/04/25 06:27:45;;;;;;;10.30;5.43;;;9.40;82.90;;;;;;5089599;28;20127;-79
2021/04/25 06:30:14;;;;;;;9.48;5.20;;;9.50;82.80;;;;;;5089016;28;20036;-80
2021/04/25 06:32:41;;;;;;;8.45;5.03;;;9.50;83.20;;;;;;5072869;28;20098;-80
2021/04/25 06:35:11;;;;;;;9.68;5.22;;;9.60;83.20;;;;;;5073932;28;20503;-79
2021/04/25 06:37:38;;;;;;;9.30;5.55;;;9.60;82.90;;;;;;5074157;28;20053;-80
2021/04/25 06:40:06;;;;;;;8.52;5.03;;;9.60;82.80;;;;;;5072884;28;20467;-79
2021/04/25 06:42:32;;;;;;;10.60;5.82;;;9.70;83.30;;;;;;5072668;28;20080;-79
2021/04/25 06:44:59;;;;;;;9.88;5.18;;;9.90;81.50;;;;;;5072936;28;20051;-79
2021/04/25 06:47:26;;;;;;;9.15;4.90;;;9.90;82.00;;;;;;5087788;28;20091;-79
2021/04/25 06:49:53;;;;;;;9.43;5.15;;;9.90;82.30;;;;;;5078982;28;20129;-79
2021/04/25 06:52:20;;;;;;;9.43;5.55;;;9.90;82.70;;;;;;5073004;28;20465;-79
2021/04/25 06:54:47;;;;;;;11.80;5.35;;;10.00;82.70;;;;;;5074558;28;20045;-79
2021/04/25 06:57:13;;;;;;;10.35;5.97;;;10.00;82.90;;;;;;5093287;28;20075;-79
2021/04/25 06:59:40;;;;;;;10.65;6.05;;;10.10;82.20;;;;;;5091531;28;20059;-78
2021/04/25 07:02:07;;;;;;;9.18;5.55;;;10.10;81.70;;;;;;5089367;28;20139;-79
2021/04/25 07:04:34;;;;;;;10.77;6.10;;;10.10;82.30;;;;;;5072886;28;20110;-79
2021/04/25 07:07:01;;;;;;;11.27;6.07;;;10.10;82.80;;;;;;5072706;28;20482;-80
2021/04/25 07:09:28;;;;;;;11.00;6.32;;;10.10;82.90;;;;;;5073645;28;20131;-79
2021/04/25 07:11:55;;;;;;;11.45;5.80;;;10.30;82.70;;;;;;5075782;28;20075;-78
2021/04/25 07:14:21;;;;;;;10.90;6.35;;;10.30;82.60;;;;;;5077913;28;20127;-80
2021/04/25 07:16:48;;;;;;;13.50;6.35;;;10.20;82.60;;;;;;5093053;28;20060;-80
2021/04/25 07:19:15;;;;;;;10.48;6.65;;;10.40;82.60;;;;;;5095847;28;20097;-80
2021/04/25 07:21:41;;;;;;;13.73;6.93;;;10.40;82.70;;;;;;5096558;28;20079;-85
2021/04/25 07:24:10;;;;;;;11.90;6.30;;;10.60;81.80;;;;;;5085159;28;20124;-77
2021/04/25 07:26:36;;;;;;;12.48;7.05;;;10.60;81.90;;;;;;5086727;28;20193;-78
2021/04/25 07:29:03;;;;;;;11.25;6.72;;;10.70;82.40;;;;;;5082828;28;20084;-78
2021/04/25 07:31:30;;;;;;;12.75;7.03;;;10.70;81.60;;;;;;5076434;28;20478;-79
2021/04/25 07:33:58;;;;;;;13.55;7.15;;;10.70;81.50;;;;;;5076576;28;20095;-79
2021/04/25 07:36:26;;;;;;;14.05;8.00;;;10.80;81.50;;;;;;5075930;28;20098;-79
2021/04/25 07:38:53;;;;;;;13.90;7.50;;;10.80;81.60;;;;;;5075971;28;20056;-79
2021/04/25 07:41:20;;;;;;;15.20;8.63;;;10.80;80.80;;;;;;5075085;28;20052;-80
2021/04/25 07:43:47;;;;;;;13.82;8.90;;;10.90;80.60;;;;;;5085058;28;20055;-79
2021/04/25 07:46:15;;;;;;;14.30;7.18;;;10.90;80.70;;;;;;5082482;28;20044;-79
2021/04/25 07:48:42;;;;;;;12.50;7.45;;;11.00;80.90;;;;;;5077476;28;20623;-80
2021/04/25 07:51:09;;;;;;;15.40;7.72;;;10.90;80.40;;;;;;5096153;28;20056;-79
2021/04/25 07:53:36;;;;;;;12.02;7.00;;;10.90;81.00;;;;;;5088120;28;20102;-80
2021/04/25 07:56:04;;;;;;;14.20;7.93;;;10.80;81.10;;;;;;5076951;28;20402;-79
2021/04/25 07:58:31;;;;;;;12.77;8.27;;;10.90;81.20;;;;;;5094786;28;20519;-80
2021/04/25 08:00:58;;;;;;;16.42;8.95;;;11.00;81.30;;;;;;5092654;28;20074;-79
2021/04/25 08:03:25;;;;;;;14.15;8.43;;;11.10;80.60;;;;;;5080340;28;20090;-80
2021/04/25 08:05:51;;;;;;;14.90;8.35;;;11.10;80.30;;;;;;5087590;28;20555;-78
2021/04/25 08:08:18;;;;;;;15.27;8.85;;;11.20;80.60;;;;;;5075811;28;20048;-80
2021/04/25 08:10:45;;;;;;;14.82;8.55;;;11.30;80.10;;;;;;5107550;28;20075;-77
2021/04/25 08:13:12;;;;;;;14.82;8.13;;;11.30;79.70;;;;;;5097133;28;20051;-81
2021/04/25 08:15:40;;;;;;;16.40;8.95;;;11.20;79.60;;;;;;5096416;28;20059;-81
2021/04/25 08:18:07;;;;;;;14.25;8.73;;;11.50;79.60;;;;;;5095981;28;20048;-82
2021/04/25 08:20:33;;;;;;;17.75;9.95;;;11.40;79.70;;;;;;5095032;28;20415;-81
2021/04/25 08:23:00;;;;;;;14.55;8.88;;;11.60;79.20;;;;;;5093650;28;20044;-79
2021/04/25 08:25:27;;;;;;;14.93;8.98;;;11.50;78.70;;;;;;5084414;28;20157;-81
2021/04/25 08:27:54;;;;;;;12.95;7.65;;;11.60;78.80;;;;;;5090597;28;20048;-80
2021/04/25 08:30:22;;;;;;;12.20;7.75;;;11.50;78.70;;;;;;5074907;28;20044;-81
2021/04/25 08:32:50;;;;;;;13.05;8.00;;;11.60;79.20;;;;;;5075854;28;20079;-81
2021/04/25 08:35:18;;;;;;;15.57;8.75;;;11.60;79.00;;;;;;5074692;28;20475;-80
2021/04/25 08:37:45;;;;;;;15.68;8.27;;;11.70;78.80;;;;;;5075309;28;20148;-81
2021/04/25 08:40:12;;;;;;;16.58;8.23;;;11.70;78.50;;;;;;5075493;28;20076;-81
2021/04/25 08:42:40;;;;;;;13.73;8.20;;;11.70;78.30;;;;;;5074782;28;20073;-81
2021/04/25 08:45:07;;;;;;;15.95;8.70;;;11.80;78.10;;;;;;5078181;28;20502;-82
2021/04/25 08:47:54;;;;;;;13.63;8.43;;;11.80;78.20;;;;;;5094188;28;20124;-79
2021/04/25 08:50:22;;;;;;;14.10;8.52;;;11.90;77.80;;;;;;5077348;28;20048;-79
2021/04/25 08:52:50;;;;;;;16.02;9.02;;;12.00;77.30;;;;;;5080264;28;20091;-80
2021/04/25 08:55:17;;;;;;;14.52;8.88;;;12.00;76.80;;;;;;5080189;28;20044;-80
2021/04/25 08:57:44;;;;;;;14.30;8.85;;;12.00;76.60;;;;;;5075257;28;20110;-80
2021/04/25 09:00:13;;;;;;;14.23;8.13;;;12.10;77.10;;;;;;5085488;28;20083;-83
2021/04/25 09:02:41;;;;;;;14.13;8.02;;;12.20;77.30;;;;;;5074951;28;20048;-80
2021/04/25 09:05:10;;;;;;;13.93;8.38;;;12.20;76.90;;;;;;5075635;28;20177;-80
2021/04/25 09:07:37;;;;;;;13.45;8.77;;;12.30;76.50;;;;;;5089315;28;20052;-79
2021/04/25 09:10:07;;;;;;;14.75;8.05;;;12.40;76.20;;;;;;5094396;28;21484;-78
2021/04/25 09:12:37;;;;;;;13.18;8.13;;;12.40;75.70;;;;;;5094563;28;20105;-79
2021/04/25 09:15:24;;;;;;;13.13;7.85;;;12.50;75.20;;;;;;5093987;28;20851;-83
2021/04/25 09:17:52;;;;;;;13.63;8.30;;;12.50;74.70;;;;;;5093916;28;20052;-79
2021/04/25 09:20:31;;;;;;;13.40;8.23;;;12.60;74.30;;;;;;5093792;28;20139;-78
2021/04/25 09:22:58;;;;;;;14.75;8.25;;;12.60;73.90;;;;;;5093513;28;20109;-78
2021/04/25 09:25:25;;;;;;;13.18;7.53;;;12.60;73.40;;;;;;5092458;28;20076;-78
2021/04/25 09:27:52;;;;;;;15.35;8.07;;;12.70;73.20;;;;;;5093339;28;20924;-78
2021/04/25 09:30:22;;;;;;;12.95;7.70;;;12.80;72.60;;;;;;5092557;28;20180;-79
2021/04/25 09:33:00;;;;;;;10.32;7.05;;;12.90;71.10;;;;;;5094804;28;20067;-76
2021/04/25 09:35:28;;;;;;;11.52;7.72;;;12.90;70.20;;;;;;5093935;28;20056;-78
2021/04/25 09:37:55;;;;;;;13.98;7.63;;;12.90;70.20;;;;;;5093601;28;20525;-81
2021/04/25 09:40:23;;;;;;;12.68;7.57;;;13.00;70.10;;;;;;5093351;28;20071;-79
2021/04/25 09:43:05;;;;;;;14.88;8.45;;;13.00;70.00;;;;;;5093267;28;20079;-81
2021/04/25 09:45:35;;;;;;;18.27;11.15;;;13.10;69.30;;;;;;5095108;28;20508;-81
2021/04/25 09:48:22;;;;;;;25.80;14.85;;;13.10;68.60;;;;;;5085243;28;20064;-79
2021/04/25 09:51:12;;;;;;;16.05;8.82;;;13.10;68.90;;;;;;5075441;28;20460;-81
2021/04/25 09:53:42;;;;;;;11.27;6.93;;;13.20;68.90;;;;;;5072909;28;20072;-81
2021/04/25 09:56:10;;;;;;;13.38;7.07;;;13.20;68.20;;;;;;5074605;28;20052;-80
2021/04/25 09:59:00;;;;;;;12.02;7.18;;;13.20;68.40;;;;;;5077900;28;20132;-79
2021/04/25 10:01:26;;;;;;;12.00;6.85;;;13.20;68.80;;;;;;5086511;28;20478;-78
2021/04/25 10:03:53;;;;;;;12.90;7.43;;;13.30;68.40;;;;;;5092621;28;20047;-78
2021/04/25 10:06:22;;;;;;;11.30;6.88;;;13.50;68.10;;;;;;5075319;28;20044;-78
2021/04/25 10:08:49;;;;;;;12.15;7.20;;;13.50;68.40;;;;;;5093130;28;20176;-79
2021/04/25 10:11:18;;;;;;;12.15;7.85;;;13.60;67.10;;;;;;5093288;28;20139;-77
2021/04/25 10:13:46;;;;;;;13.57;7.38;;;13.70;66.70;;;;;;5088688;28;20503;-79
2021/04/25 10:16:13;;;;;;;11.27;6.65;;;13.80;66.60;;;;;;5093078;28;20414;-77
2021/04/25 10:18:40;;;;;;;13.25;8.38;;;13.80;64.70;;;;;;5093112;28;20083;-79
2021/04/25 10:21:07;;;;;;;12.13;7.03;;;13.80;64.10;;;;;;5088977;28;20076;-78
2021/04/25 10:23:35;;;;;;;12.45;7.93;;;13.80;64.90;;;;;;5087994;28;20826;-77
2021/04/25 10:26:09;;;;;;;12.68;7.28;;;13.90;64.00;;;;;;5093773;28;20078;-79
2021/04/25 10:28:41;;;;;;;11.57;7.15;;;13.90;64.10;;;;;;5092615;28;20055;-80
2021/04/25 10:31:12;;;;;;;10.95;6.38;;;13.90;63.90;;;;;;5093137;28;20554;-79
2021/04/25 10:33:54;;;;;;;10.52;6.45;;;13.90;63.40;;;;;;5092882;28;20106;-79
2021/04/25 10:36:22;;;;;;;10.93;6.30;;;14.10;62.80;;;;;;5093061;28;20052;-79
2021/04/25 10:38:50;;;;;;;11.65;6.60;;;14.10;62.80;;;;;;5093149;28;20087;-78
2021/04/25 10:41:22;;;;;;;10.00;6.10;;;14.20;63.00;;;;;;5089478;28;20044;-78
2021/04/25 10:44:00;;;;;;;8.45;5.30;;;14.30;62.40;;;;;;5075367;28;20063;-79
2021/04/25 10:46:28;;;;;;;9.15;5.40;;;14.30;61.60;;;;;;5092116;28;20040;-81
2021/04/25 10:49:31;;;;;;;9.35;5.10;;;14.40;61.20;;;;;;5092099;28;20052;-80
2021/04/25 10:52:22;;;;;;;11.00;7.00;;;14.50;62.40;;;;;;5091283;28;20071;-84
2021/04/25 10:55:32;;;;;;;11.27;6.07;;;14.60;60.80;;;;;;5097297;28;20076;-82
2021/04/25 10:58:21;;;;;;;10.20;5.50;;;14.60;58.70;;;;;;5097474;28;20104;-82
2021/04/25 11:00:48;;;;;;;13.07;6.80;;;14.60;59.70;;;;;;5097181;28;20105;-82
2021/04/25 11:03:39;;;;;;;10.82;6.10;;;14.70;59.60;;;;;;5097285;28;20139;-82
2021/04/25 11:06:26;;;;;;;12.10;7.13;;;14.70;59.60;;;;;;5096979;28;20127;-82
2021/04/25 11:08:53;;;;;;;10.35;5.57;;;14.90;58.00;;;;;;5097550;28;20056;-81
2021/04/25 11:11:34;;;;;;;12.20;7.13;;;14.90;59.10;;;;;;5096267;28;20125;-81
2021/04/25 11:14:02;;;;;;;9.82;6.28;;;14.90;58.70;;;;;;5096644;28;20446;-80
2021/04/25 11:16:30;;;;;;;9.80;5.88;;;14.90;59.10;;;;;;5097007;28;20056;-80
2021/04/25 11:19:00;;;;;;;13.95;6.90;;;15.00;59.70;;;;;;5097022;28;20048;-79
2021/04/25 11:21:56;;;;;;;10.68;6.07;;;15.10;59.60;;;;;;5096386;28;20071;-79
2021/04/25 11:24:39;;;;;;;11.52;7.03;;;15.10;59.70;;;;;;5096656;28;20095;-80
2021/04/25 11:27:35;;;;;;;7.90;5.33;;;15.10;57.90;;;;;;5096972;28;20080;-78
2021/04/25 11:30:03;;;;;;;11.45;6.82;;;15.10;58.50;;;;;;5076781;28;20053;-85
2021/04/25 11:32:36;;;;;;;9.70;5.80;;;15.20;57.70;;;;;;5078912;28;20399;-88
2021/04/25 11:35:13;;;;;;;11.65;6.78;;;15.30;56.20;;;;;;5088036;28;20505;-82
2021/04/25 11:37:43;;;;;;;9.57;5.35;;;15.40;53.50;;;;;;5098251;28;20489;-83
2021/04/25 11:40:11;;;;;;;8.27;4.68;;;15.40;54.70;;;;;;5098487;28;20105;-86
2021/04/25 11:42:50;;;;;;;7.20;4.38;;;15.40;55.10;;;;;;5097236;28;20082;-84
2021/04/25 11:45:27;;;;;;;9.45;5.65;;;15.40;53.80;;;;;;5098770;28;20056;-88
2021/04/25 11:47:58;;;;;;;10.23;5.88;;;15.60;53.70;;;;;;5097048;28;20083;-83
2021/04/25 11:50:33;;;;;;;9.65;5.40;;;15.70;53.50;;;;;;5091032;28;20044;-82
2021/04/25 11:53:00;;;;;;;8.13;4.47;;;15.70;53.70;;;;;;5096512;28;20105;-80
2021/04/25 11:55:29;;;;;;;8.05;4.65;;;15.80;54.20;;;;;;5096113;28;20462;-85
2021/04/25 11:57:57;;;;;;;8.77;4.88;;;15.90;54.90;;;;;;5093775;28;20051;-84
2021/04/25 12:00:26;;;;;;;9.45;5.38;;;16.00;54.70;;;;;;5096670;28;20055;-84
2021/04/25 12:02:56;;;;;;;8.65;5.55;;;16.20;52.40;;;;;;5096928;28;20055;-84
2021/04/25 12:05:25;;;;;;;8.43;5.22;;;16.30;51.90;;;;;;5094263;28;20486;-79
2021/04/25 12:07:54;;;;;;;9.20;4.72;;;16.30;52.30;;;;;;5091994;28;20440;-80
2021/04/25 12:10:33;;;;;;;7.40;4.40;;;16.40;52.80;;;;;;5085878;28;20501;-79
2021/04/25 12:13:11;;;;;;;7.20;4.15;;;16.40;50.70;;;;;;5095749;28;20055;-78
2021/04/25 12:15:48;;;;;;;9.32;4.57;;;16.40;48.70;;;;;;5094901;28;20048;-81
2021/04/25 12:18:18;;;;;;;8.35;4.63;;;16.50;49.60;;;;;;5095268;28;20429;-80
2021/04/25 12:20:47;;;;;;;8.43;3.78;;;16.70;49.70;;;;;;5097476;28;20063;-79
2021/04/25 12:23:20;;;;;;;8.60;4.57;;;16.80;50.20;;;;;;5095654;28;20127;-78
2021/04/25 12:25:49;;;;;;;7.35;4.57;;;16.90;49.30;;;;;;5096310;28;20044;-77
2021/04/25 12:28:18;;;;;;;7.80;4.03;;;17.00;46.60;;;;;;5092900;28;20117;-79
2021/04/25 12:30:46;;;;;;;7.15;3.92;;;17.10;46.60;;;;;;5094385;28;20440;-79
2021/04/25 12:33:15;;;;;;;7.22;3.72;;;17.20;46.50;;;;;;5082371;28;20139;-78
2021/04/25 12:35:44;;;;;;;8.00;4.40;;;17.30;47.20;;;;;;5075777;28;20131;-86
2021/04/25 12:38:20;;;;;;;8.13;3.45;;;17.50;44.80;;;;;;5088792;28;20147;-86
2021/04/25 12:40:58;;;;;;;5.97;3.25;;;17.60;44.30;;;;;;5095671;28;20071;-85
2021/04/25 12:43:27;;;;;;;7.95;4.75;;;17.70;43.80;;;;;;5096087;28;20075;-85
2021/04/25 12:45:56;;;;;;;7.75;3.13;;;17.80;42.10;;;;;;5075561;28;20044;-86
2021/04/25 12:48:33;;;;;;;6.22;3.45;;;17.90;43.00;;;;;;5086655;28;20048;-86
2021/04/25 12:51:20;;;;;;;6.03;3.03;;;17.90;42.30;;;;;;5095897;28;20490;-85
2021/04/25 12:54:05;;;;;;;5.82;2.97;;;18.10;42.50;;;;;;5095079;28;20102;-85
2021/04/25 12:56:35;;;;;;;6.70;2.88;;;18.10;43.30;;;;;;5095329;28;20044;-78